sensor_id;sensor_type;location;lat;lon;timestamp;P1;durP1;ratioP1;P2;durP2;ratioP2
5539;SDS011;2792;52.452;9.752;2023-04-24T00:01:17;1.70;;;1.60;;
5539;SDS011;2792;52.452;9.752;2023-04-24T00:03:44;2.00;;;1.60;;
5539;SDS011;2792;52.452;9.752;2023-04-24T00:06:10;1.47;;;1.37;;
5539;SDS011;2792;52.452;9.752;2023-04-24T00:08:39;1.60;;;1.50;;
5539;SDS011;2792;52.452;9.752;2023-04-24T00:11:05;1.80;;;1.70;;
5539;SDS011;2792;52.452;9.752;2023-04-24T00:13:31;1.60;;;1.50;;
5539;SDS011;2792;52.452;9.752;2023-04-24T00:15:58;2.77;;;2.00;;
5539;SDS011;2792;52.452;9.752;2023-04-24T00:18:24;1.50;;;1.40;;
5539;SDS011;2792;52.452;9.752;2023-04-24T00:20:51;1.37;;;1.27;;
5539;SDS011;2792;52.452;9.752;2023-04-24T00:23:18;1.47;;;1.20;;
5539;SDS011;2792;52.452;9.752;2023-04-24T00:25:45;1.73;;;1.30;;
5539;SDS011;2792;52.452;9.752;2023-04-24T00:28:12;1.67;;;1.40;;
5539;SDS011;2792;52.452;9.752;2023-04-24T00:30:38;1.17;;;1.07;;
5539;SDS011;2792;52.452;9.752;2023-04-24T00:33:06;1.33;;;1.23;;
5539;SDS011;2792;52.452;9.752;2023-04-24T00:35:32;1.23;;;1.23;;
5539;SDS011;2792;52.452;9.752;2023-04-24T00:37:58;1.10;;;1.10;;
5539;SDS011;2792;52.452;9.752;2023-04-24T00:40:27;4.07;;;1.27;;
5539;SDS011;2792;52.452;9.752;2023-04-24T00:42:56;1.10;;;1.10;;
5539;SDS011;2792;52.452;9.752;2023-04-24T00:45:23;1.77;;;1.10;;
5539;SDS011;2792;52.452;9.752;2023-04-24T00:47:51;1.43;;;1.33;;
5539;SDS011;2792;52.452;9.752;2023-04-24T00:50:18;1.40;;;1.30;;
5539;SDS011;2792;52.452;9.752;2023-04-24T00:52:47;1.23;;;1.20;;
5539;SDS011;2792;52.452;9.752;2023-04-24T00:55:13;1.50;;;1.40;;
5539;SDS011;2792;52.452;9.752;2023-04-24T00:57:40;1.47;;;1.37;;
5539;SDS011;2792;52.452;9.752;2023-04-24T01:00:09;1.13;;;1.10;;
5539;SDS011;2792;52.452;9.752;2023-04-24T01:02:37;1.20;;;1.10;;
5539;SDS011;2792;52.452;9.752;2023-04-24T01:05:05;1.33;;;1.23;;
5539;SDS011;2792;52.452;9.752;2023-04-24T01:07:32;1.77;;;1.40;;
5539;SDS011;2792;52.452;9.752;2023-04-24T01:09:59;3.10;;;2.10;;
5539;SDS011;2792;52.452;9.752;2023-04-24T01:12:25;1.50;;;1.30;;
5539;SDS011;2792;52.452;9.752;2023-04-24T01:14:52;1.40;;;1.30;;
5539;SDS011;2792;52.452;9.752;2023-04-24T01:17:20;1.97;;;1.60;;
5539;SDS011;2792;52.452;9.752;2023-04-24T01:19:46;1.57;;;1.47;;
5539;SDS011;2792;52.452;9.752;2023-04-24T01:22:14;1.50;;;1.40;;
5539;SDS011;2792;52.452;9.752;2023-04-24T01:24:41;0.90;;;0.90;;
5539;SDS011;2792;52.452;9.752;2023-04-24T01:27:08;1.40;;;1.30;;
5539;SDS011;2792;52.452;9.752;2023-04-24T01:29:35;1.30;;;1.20;;
5539;SDS011;2792;52.452;9.752;2023-04-24T01:32:02;2.77;;;1.33;;
5539;SDS011;2792;52.452;9.752;2023-04-24T01:34:29;1.43;;;1.33;;
5539;SDS011;2792;52.452;9.752;2023-04-24T01:36:56;1.50;;;1.40;;
5539;SDS011;2792;52.452;9.752;2023-04-24T01:39:23;1.30;;;1.27;;
5539;SDS011;2792;52.452;9.752;2023-04-24T01:41:50;2.30;;;1.20;;
5539;SDS011;2792;52.452;9.752;2023-04-24T01:44:17;2.50;;;1.03;;
5539;SDS011;2792;52.452;9.752;2023-04-24T01:46:44;2.17;;;1.00;;
5539;SDS011;2792;52.452;9.752;2023-04-24T01:49:10;2.57;;;1.50;;
5539;SDS011;2792;52.452;9.752;2023-04-24T01:51:37;1.30;;;1.30;;
5539;SDS011;2792;52.452;9.752;2023-04-24T01:54:03;1.23;;;1.13;;
5539;SDS011;2792;52.452;9.752;2023-04-24T01:56:33;1.13;;;1.13;;
5539;SDS011;2792;52.452;9.752;2023-04-24T01:58:59;1.63;;;1.20;;
5539;SDS011;2792;52.452;9.752;2023-04-24T02:01:27;1.33;;;0.97;;
5539;SDS011;2792;52.452;9.752;2023-04-24T02:03:53;1.00;;;1.00;;
5539;SDS011;2792;52.452;9.752;2023-04-24T02:06:20;1.43;;;1.23;;
5539;SDS011;2792;52.452;9.752;2023-04-24T02:08:47;1.27;;;1.03;;
5539;SDS011;2792;52.452;9.752;2023-04-24T02:11:13;0.90;;;0.90;;
5539;SDS011;2792;52.452;9.752;2023-04-24T02:13:41;1.07;;;1.07;;
5539;SDS011;2792;52.452;9.752;2023-04-24T02:16:08;1.83;;;1.33;;
5539;SDS011;2792;52.452;9.752;2023-04-24T02:18:34;1.23;;;1.13;;
5539;SDS011;2792;52.452;9.752;2023-04-24T02:21:01;1.90;;;1.23;;
5539;SDS011;2792;52.452;9.752;2023-04-24T02:23:27;1.07;;;1.07;;
5539;SDS011;2792;52.452;9.752;2023-04-24T02:25:54;1.00;;;1.00;;
5539;SDS011;2792;52.452;9.752;2023-04-24T02:28:20;1.20;;;1.10;;
5539;SDS011;2792;52.452;9.752;2023-04-24T02:30:48;1.53;;;1.40;;
5539;SDS011;2792;52.452;9.752;2023-04-24T02:33:16;0.97;;;0.97;;
5539;SDS011;2792;52.452;9.752;2023-04-24T02:35:42;1.40;;;1.30;;
5539;SDS011;2792;52.452;9.752;2023-04-24T02:38:09;1.67;;;1.10;;
5539;SDS011;2792;52.452;9.752;2023-04-24T02:40:35;1.30;;;1.20;;
5539;SDS011;2792;52.452;9.752;2023-04-24T02:43:02;1.77;;;1.00;;
5539;SDS011;2792;52.452;9.752;2023-04-24T02:45:28;1.37;;;1.27;;
5539;SDS011;2792;52.452;9.752;2023-04-24T02:47:56;1.33;;;1.20;;
5539;SDS011;2792;52.452;9.752;2023-04-24T02:50:22;1.17;;;1.07;;
5539;SDS011;2792;52.452;9.752;2023-04-24T02:52:49;2.70;;;1.30;;
5539;SDS011;2792;52.452;9.752;2023-04-24T02:55:15;1.00;;;1.00;;
5539;SDS011;2792;52.452;9.752;2023-04-24T02:57:42;1.27;;;0.90;;
5539;SDS011;2792;52.452;9.752;2023-04-24T03:00:09;1.70;;;1.10;;
5539;SDS011;2792;52.452;9.752;2023-04-24T03:02:36;1.47;;;1.00;;
5539;SDS011;2792;52.452;9.752;2023-04-24T03:05:04;0.90;;;0.90;;
5539;SDS011;2792;52.452;9.752;2023-04-24T03:07:32;1.23;;;1.13;;
5539;SDS011;2792;52.452;9.752;2023-04-24T03:09:59;1.30;;;0.90;;
5539;SDS011;2792;52.452;9.752;2023-04-24T03:12:25;1.20;;;1.10;;
5539;SDS011;2792;52.452;9.752;2023-04-24T03:14:52;1.10;;;1.10;;
5539;SDS011;2792;52.452;9.752;2023-04-24T03:17:18;1.00;;;1.00;;
5539;SDS011;2792;52.452;9.752;2023-04-24T03:19:45;1.43;;;1.10;;
5539;SDS011;2792;52.452;9.752;2023-04-24T03:22:13;1.10;;;1.00;;
5539;SDS011;2792;52.452;9.752;2023-04-24T03:24:39;1.73;;;0.90;;
5539;SDS011;2792;52.452;9.752;2023-04-24T03:27:06;1.10;;;1.00;;
5539;SDS011;2792;52.452;9.752;2023-04-24T03:29:32;0.90;;;0.90;;
5539;SDS011;2792;52.452;9.752;2023-04-24T03:31:59;1.73;;;0.80;;
5539;SDS011;2792;52.452;9.752;2023-04-24T03:34:25;1.30;;;1.20;;
5539;SDS011;2792;52.452;9.752;2023-04-24T03:36:52;1.00;;;1.00;;
5539;SDS011;2792;52.452;9.752;2023-04-24T03:39:20;2.17;;;0.90;;
5539;SDS011;2792;52.452;9.752;2023-04-24T03:41:46;1.10;;;1.00;;
5539;SDS011;2792;52.452;9.752;2023-04-24T03:44:13;1.00;;;0.90;;
5539;SDS011;2792;52.452;9.752;2023-04-24T03:46:39;0.93;;;0.93;;
5539;SDS011;2792;52.452;9.752;2023-04-24T03:49:06;1.10;;;1.00;;
5539;SDS011;2792;52.452;9.752;2023-04-24T03:51:32;0.90;;;0.90;;
5539;SDS011;2792;52.452;9.752;2023-04-24T03:53:59;1.53;;;1.43;;
5539;SDS011;2792;52.452;9.752;2023-04-24T03:56:27;1.30;;;1.20;;
5539;SDS011;2792;52.452;9.752;2023-04-24T03:58:53;1.20;;;1.10;;
5539;SDS011;2792;52.452;9.752;2023-04-24T04:01:20;2.50;;;1.40;;
5539;SDS011;2792;52.452;9.752;2023-04-24T04:03:47;1.00;;;1.00;;
5539;SDS011;2792;52.452;9.752;2023-04-24T04:06:13;1.33;;;1.03;;
5539;SDS011;2792;52.452;9.752;2023-04-24T04:08:40;1.40;;;1.00;;
5539;SDS011;2792;52.452;9.752;2023-04-24T04:11:06;1.73;;;1.27;;
5539;SDS011;2792;52.452;9.752;2023-04-24T04:13:34;2.60;;;1.20;;
5539;SDS011;2792;52.452;9.752;2023-04-24T04:16:01;1.87;;;1.23;;
5539;SDS011;2792;52.452;9.752;2023-04-24T04:18:27;1.47;;;1.37;;
5539;SDS011;2792;52.452;9.752;2023-04-24T04:20:54;1.20;;;1.10;;
5539;SDS011;2792;52.452;9.752;2023-04-24T04:23:21;1.23;;;1.13;;
5539;SDS011;2792;52.452;9.752;2023-04-24T04:25:48;1.60;;;1.50;;
5539;SDS011;2792;52.452;9.752;2023-04-24T04:28:15;1.30;;;1.10;;
5539;SDS011;2792;52.452;9.752;2023-04-24T04:30:46;1.27;;;1.17;;
5539;SDS011;2792;52.452;9.752;2023-04-24T04:33:12;1.30;;;1.20;;
5539;SDS011;2792;52.452;9.752;2023-04-24T04:35:39;1.40;;;1.30;;
5539;SDS011;2792;52.452;9.752;2023-04-24T04:38:07;1.53;;;1.00;;
5539;SDS011;2792;52.452;9.752;2023-04-24T04:40:35;1.50;;;1.40;;
5539;SDS011;2792;52.452;9.752;2023-04-24T04:43:02;1.43;;;1.20;;
5539;SDS011;2792;52.452;9.752;2023-04-24T04:45:29;1.37;;;1.27;;
5539;SDS011;2792;52.452;9.752;2023-04-24T04:47:57;1.63;;;0.93;;
5539;SDS011;2792;52.452;9.752;2023-04-24T04:50:25;1.33;;;1.10;;
5539;SDS011;2792;52.452;9.752;2023-04-24T04:52:52;1.10;;;1.00;;
5539;SDS011;2792;52.452;9.752;2023-04-24T04:55:18;1.40;;;1.30;;
5539;SDS011;2792;52.452;9.752;2023-04-24T04:57:45;2.37;;;1.33;;
5539;SDS011;2792;52.452;9.752;2023-04-24T05:00:12;1.10;;;1.10;;
5539;SDS011;2792;52.452;9.752;2023-04-24T05:02:39;1.57;;;1.47;;
5539;SDS011;2792;52.452;9.752;2023-04-24T05:05:07;1.37;;;1.27;;
5539;SDS011;2792;52.452;9.752;2023-04-24T05:07:34;2.27;;;1.30;;
5539;SDS011;2792;52.452;9.752;2023-04-24T05:10:01;1.20;;;1.10;;
5539;SDS011;2792;52.452;9.752;2023-04-24T05:12:27;3.90;;;1.10;;
5539;SDS011;2792;52.452;9.752;2023-04-24T05:14:54;0.90;;;0.90;;
5539;SDS011;2792;52.452;9.752;2023-04-24T05:17:20;2.07;;;0.97;;
5539;SDS011;2792;52.452;9.752;2023-04-24T05:19:47;1.10;;;1.00;;
5539;SDS011;2792;52.452;9.752;2023-04-24T05:22:15;1.07;;;0.97;;
5539;SDS011;2792;52.452;9.752;2023-04-24T05:24:43;0.90;;;0.90;;
5539;SDS011;2792;52.452;9.752;2023-04-24T05:27:10;1.50;;;1.20;;
5539;SDS011;2792;52.452;9.752;2023-04-24T05:29:36;1.57;;;0.90;;
5539;SDS011;2792;52.452;9.752;2023-04-24T05:32:03;0.90;;;0.90;;
5539;SDS011;2792;52.452;9.752;2023-04-24T05:34:29;1.70;;;1.00;;
5539;SDS011;2792;52.452;9.752;2023-04-24T05:36:56;1.40;;;1.20;;
5539;SDS011;2792;52.452;9.752;2023-04-24T05:39:24;0.97;;;0.97;;
5539;SDS011;2792;52.452;9.752;2023-04-24T05:41:51;2.03;;;1.00;;
5539;SDS011;2792;52.452;9.752;2023-04-24T05:44:17;1.13;;;0.93;;
5539;SDS011;2792;52.452;9.752;2023-04-24T05:46:44;1.20;;;1.00;;
5539;SDS011;2792;52.452;9.752;2023-04-24T05:49:10;1.10;;;1.10;;
5539;SDS011;2792;52.452;9.752;2023-04-24T05:51:37;1.90;;;1.07;;
5539;SDS011;2792;52.452;9.752;2023-04-24T05:54:04;1.10;;;1.00;;
5539;SDS011;2792;52.452;9.752;2023-04-24T05:56:32;1.40;;;1.13;;
5539;SDS011;2792;52.452;9.752;2023-04-24T05:58:58;1.20;;;1.10;;
5539;SDS011;2792;52.452;9.752;2023-04-24T06:01:25;1.07;;;1.00;;
5539;SDS011;2792;52.452;9.752;2023-04-24T06:03:51;1.00;;;1.00;;
5539;SDS011;2792;52.452;9.752;2023-04-24T06:06:18;1.30;;;1.20;;
5539;SDS011;2792;52.452;9.752;2023-04-24T06:08:45;1.23;;;1.17;;
5539;SDS011;2792;52.452;9.752;2023-04-24T06:11:11;2.53;;;1.00;;
5539;SDS011;2792;52.452;9.752;2023-04-24T06:13:39;1.33;;;1.20;;
5539;SDS011;2792;52.452;9.752;2023-04-24T06:16:06;1.53;;;1.30;;
5539;SDS011;2792;52.452;9.752;2023-04-24T06:18:32;2.30;;;1.53;;
5539;SDS011;2792;52.452;9.752;2023-04-24T06:20:59;1.43;;;1.20;;
5539;SDS011;2792;52.452;9.752;2023-04-24T06:23:25;2.80;;;1.50;;
5539;SDS011;2792;52.452;9.752;2023-04-24T06:25:52;1.73;;;1.50;;
5539;SDS011;2792;52.452;9.752;2023-04-24T06:28:18;4.00;;;1.40;;
5539;SDS011;2792;52.452;9.752;2023-04-24T06:30:46;1.70;;;1.60;;
5539;SDS011;2792;52.452;9.752;2023-04-24T06:33:13;1.93;;;1.50;;
5539;SDS011;2792;52.452;9.752;2023-04-24T06:35:39;1.70;;;1.60;;
5539;SDS011;2792;52.452;9.752;2023-04-24T06:38:06;1.50;;;1.40;;
5539;SDS011;2792;52.452;9.752;2023-04-24T06:40:32;2.83;;;2.20;;
5539;SDS011;2792;52.452;9.752;2023-04-24T06:42:59;2.03;;;1.83;;
5539;SDS011;2792;52.452;9.752;2023-04-24T06:45:27;5.53;;;2.30;;
5539;SDS011;2792;52.452;9.752;2023-04-24T06:47:55;2.50;;;1.90;;
5539;SDS011;2792;52.452;9.752;2023-04-24T06:50:22;3.13;;;2.40;;
5539;SDS011;2792;52.452;9.752;2023-04-24T06:52:48;3.00;;;2.40;;
5539;SDS011;2792;52.452;9.752;2023-04-24T06:55:15;2.80;;;2.60;;
5539;SDS011;2792;52.452;9.752;2023-04-24T06:57:42;2.90;;;2.70;;
5539;SDS011;2792;52.452;9.752;2023-04-24T07:00:09;4.27;;;3.13;;
5539;SDS011;2792;52.452;9.752;2023-04-24T07:02:36;3.00;;;2.80;;
5539;SDS011;2792;52.452;9.752;2023-04-24T07:05:05;2.97;;;2.77;;
5539;SDS011;2792;52.452;9.752;2023-04-24T07:07:33;4.00;;;3.60;;
5539;SDS011;2792;52.452;9.752;2023-04-24T07:10:02;3.80;;;3.50;;
5539;SDS011;2792;52.452;9.752;2023-04-24T07:12:30;3.80;;;3.37;;
5539;SDS011;2792;52.452;9.752;2023-04-24T07:14:56;4.60;;;3.97;;
5539;SDS011;2792;52.452;9.752;2023-04-24T07:17:23;4.03;;;3.70;;
5539;SDS011;2792;52.452;9.752;2023-04-24T07:19:49;3.73;;;3.43;;
5539;SDS011;2792;52.452;9.752;2023-04-24T07:22:17;5.07;;;4.07;;
5539;SDS011;2792;52.452;9.752;2023-04-24T07:24:44;4.20;;;3.90;;
5539;SDS011;2792;52.452;9.752;2023-04-24T07:27:10;4.67;;;4.23;;
5539;SDS011;2792;52.452;9.752;2023-04-24T07:29:39;4.50;;;4.10;;
5539;SDS011;2792;52.452;9.752;2023-04-24T07:32:06;4.30;;;3.90;;
5539;SDS011;2792;52.452;9.752;2023-04-24T07:34:32;5.23;;;3.63;;
5539;SDS011;2792;52.452;9.752;2023-04-24T07:36:59;4.07;;;3.50;;
5539;SDS011;2792;52.452;9.752;2023-04-24T07:39:27;5.40;;;3.90;;
5539;SDS011;2792;52.452;9.752;2023-04-24T07:41:54;4.33;;;3.93;;
5539;SDS011;2792;52.452;9.752;2023-04-24T07:44:20;6.73;;;5.13;;
5539;SDS011;2792;52.452;9.752;2023-04-24T07:46:47;4.60;;;3.87;;
5539;SDS011;2792;52.452;9.752;2023-04-24T07:49:13;7.00;;;4.20;;
5539;SDS011;2792;52.452;9.752;2023-04-24T07:51:40;6.47;;;4.27;;
5539;SDS011;2792;52.452;9.752;2023-04-24T07:54:06;6.27;;;4.43;;
5539;SDS011;2792;52.452;9.752;2023-04-24T07:56:34;8.33;;;4.77;;
5539;SDS011;2792;52.452;9.752;2023-04-24T07:59:03;7.03;;;4.70;;
5539;SDS011;2792;52.452;9.752;2023-04-24T08:01:30;6.83;;;5.90;;
5539;SDS011;2792;52.452;9.752;2023-04-24T08:03:56;7.50;;;5.10;;
5539;SDS011;2792;52.452;9.752;2023-04-24T08:06:23;10.53;;;5.40;;
5539;SDS011;2792;52.452;9.752;2023-04-24T08:08:52;5.93;;;5.33;;
5539;SDS011;2792;52.452;9.752;2023-04-24T08:11:19;6.13;;;5.53;;
5539;SDS011;2792;52.452;9.752;2023-04-24T08:13:47;7.10;;;5.50;;
5539;SDS011;2792;52.452;9.752;2023-04-24T08:16:13;10.90;;;6.50;;
5539;SDS011;2792;52.452;9.752;2023-04-24T08:18:40;8.40;;;5.70;;
5539;SDS011;2792;52.452;9.752;2023-04-24T08:21:06;7.53;;;6.27;;
5539;SDS011;2792;52.452;9.752;2023-04-24T08:23:33;7.20;;;6.50;;
5539;SDS011;2792;52.452;9.752;2023-04-24T08:25:59;6.83;;;6.07;;
5539;SDS011;2792;52.452;9.752;2023-04-24T08:28:26;9.37;;;6.70;;
5539;SDS011;2792;52.452;9.752;2023-04-24T08:30:54;6.53;;;5.87;;
5539;SDS011;2792;52.452;9.752;2023-04-24T08:33:21;9.30;;;6.80;;
5539;SDS011;2792;52.452;9.752;2023-04-24T08:35:48;7.33;;;5.90;;
5539;SDS011;2792;52.452;9.752;2023-04-24T08:38:14;7.00;;;6.30;;
5539;SDS011;2792;52.452;9.752;2023-04-24T08:40:41;7.40;;;6.17;;
5539;SDS011;2792;52.452;9.752;2023-04-24T08:43:08;9.93;;;6.30;;
5539;SDS011;2792;52.452;9.752;2023-04-24T08:45:35;6.70;;;5.70;;
5539;SDS011;2792;52.452;9.752;2023-04-24T08:48:03;6.37;;;5.73;;
5539;SDS011;2792;52.452;9.752;2023-04-24T08:50:30;6.80;;;5.40;;
5539;SDS011;2792;52.452;9.752;2023-04-24T08:52:57;9.50;;;5.60;;
5539;SDS011;2792;52.452;9.752;2023-04-24T08:55:24;6.30;;;5.63;;
5539;SDS011;2792;52.452;9.752;2023-04-24T08:57:52;5.93;;;4.97;;
5539;SDS011;2792;52.452;9.752;2023-04-24T09:00:20;6.07;;;5.47;;
5539;SDS011;2792;52.452;9.752;2023-04-24T09:02:47;7.30;;;5.80;;
5539;SDS011;2792;52.452;9.752;2023-04-24T09:05:17;6.57;;;5.30;;
5539;SDS011;2792;52.452;9.752;2023-04-24T09:07:45;7.43;;;5.50;;
5539;SDS011;2792;52.452;9.752;2023-04-24T09:10:13;5.87;;;5.10;;
5539;SDS011;2792;52.452;9.752;2023-04-24T09:12:40;6.67;;;5.33;;
5539;SDS011;2792;52.452;9.752;2023-04-24T09:15:07;5.63;;;4.90;;
5539;SDS011;2792;52.452;9.752;2023-04-24T09:17:34;6.93;;;5.10;;
5539;SDS011;2792;52.452;9.752;2023-04-24T09:20:01;6.30;;;4.50;;
5539;SDS011;2792;52.452;9.752;2023-04-24T09:22:30;5.00;;;4.20;;
5539;SDS011;2792;52.452;9.752;2023-04-24T09:25:01;6.57;;;4.30;;
5539;SDS011;2792;52.452;9.752;2023-04-24T09:27:30;6.97;;;4.57;;
5539;SDS011;2792;52.452;9.752;2023-04-24T09:29:57;4.80;;;4.20;;
5539;SDS011;2792;52.452;9.752;2023-04-24T09:32:24;6.60;;;3.67;;
5539;SDS011;2792;52.452;9.752;2023-04-24T09:35:04;4.50;;;3.83;;
5539;SDS011;2792;52.452;9.752;2023-04-24T09:37:34;4.20;;;3.80;;
5539;SDS011;2792;52.452;9.752;2023-04-24T09:40:11;4.10;;;3.70;;
5539;SDS011;2792;52.452;9.752;2023-04-24T09:42:39;5.03;;;3.60;;
5539;SDS011;2792;52.452;9.752;2023-04-24T09:45:09;4.63;;;3.60;;
5539;SDS011;2792;52.452;9.752;2023-04-24T09:47:36;3.80;;;3.30;;
5539;SDS011;2792;52.452;9.752;2023-04-24T09:50:09;3.13;;;2.87;;
5539;SDS011;2792;52.452;9.752;2023-04-24T09:52:37;4.00;;;3.37;;
5539;SDS011;2792;52.452;9.752;2023-04-24T09:55:10;3.87;;;3.40;;
5539;SDS011;2792;52.452;9.752;2023-04-24T09:57:42;3.70;;;3.40;;
5539;SDS011;2792;52.452;9.752;2023-04-24T10:00:13;6.67;;;4.17;;
5539;SDS011;2792;52.452;9.752;2023-04-24T10:02:44;3.60;;;3.30;;
5539;SDS011;2792;52.452;9.752;2023-04-24T10:05:11;3.30;;;3.10;;
5539;SDS011;2792;52.452;9.752;2023-04-24T10:07:39;5.10;;;3.23;;
5539;SDS011;2792;52.452;9.752;2023-04-24T10:10:06;4.33;;;3.10;;
5539;SDS011;2792;52.452;9.752;2023-04-24T10:12:32;4.07;;;3.30;;
5539;SDS011;2792;52.452;9.752;2023-04-24T10:14:59;2.90;;;2.70;;
5539;SDS011;2792;52.452;9.752;2023-04-24T10:17:26;3.60;;;3.20;;
5539;SDS011;2792;52.452;9.752;2023-04-24T10:19:54;3.23;;;2.93;;
5539;SDS011;2792;52.452;9.752;2023-04-24T10:22:22;3.40;;;3.03;;
5539;SDS011;2792;52.452;9.752;2023-04-24T10:24:50;3.00;;;2.80;;
5539;SDS011;2792;52.452;9.752;2023-04-24T10:27:18;4.13;;;2.97;;
5539;SDS011;2792;52.452;9.752;2023-04-24T10:29:46;3.00;;;2.70;;
5539;SDS011;2792;52.452;9.752;2023-04-24T10:32:13;3.33;;;3.07;;
5539;SDS011;2792;52.452;9.752;2023-04-24T10:34:40;7.33;;;3.00;;
5539;SDS011;2792;52.452;9.752;2023-04-24T10:37:06;2.70;;;2.50;;
5539;SDS011;2792;52.452;9.752;2023-04-24T10:39:33;3.90;;;3.10;;
5539;SDS011;2792;52.452;9.752;2023-04-24T10:42:01;3.30;;;3.00;;
5539;SDS011;2792;52.452;9.752;2023-04-24T10:44:35;4.70;;;2.70;;
5539;SDS011;2792;52.452;9.752;2023-04-24T10:47:02;6.10;;;3.00;;
5539;SDS011;2792;52.452;9.752;2023-04-24T10:49:29;3.40;;;3.10;;
5539;SDS011;2792;52.452;9.752;2023-04-24T10:51:59;3.90;;;2.80;;
5539;SDS011;2792;52.452;9.752;2023-04-24T10:54:27;2.90;;;2.70;;
5539;SDS011;2792;52.452;9.752;2023-04-24T11:02:56;2.40;;;2.27;;
5539;SDS011;2792;52.452;9.752;2023-04-24T11:05:25;2.33;;;2.20;;
5539;SDS011;2792;52.452;9.752;2023-04-24T11:08:16;2.00;;;1.90;;
5539;SDS011;2792;52.452;9.752;2023-04-24T11:10:54;2.80;;;2.13;;
5539;SDS011;2792;52.452;9.752;2023-04-24T11:13:24;2.07;;;1.97;;
5539;SDS011;2792;52.452;9.752;2023-04-24T11:18:41;4.37;;;2.70;;
5539;SDS011;2792;52.452;9.752;2023-04-24T11:21:11;2.30;;;1.87;;
5539;SDS011;2792;52.452;9.752;2023-04-24T11:23:38;2.50;;;2.23;;
5539;SDS011;2792;52.452;9.752;2023-04-24T11:26:11;2.20;;;2.00;;
5539;SDS011;2792;52.452;9.752;2023-04-24T11:28:45;2.40;;;2.03;;
5539;SDS011;2792;52.452;9.752;2023-04-24T11:34:05;3.07;;;2.67;;
5539;SDS011;2792;52.452;9.752;2023-04-24T11:36:33;1.90;;;1.80;;
5539;SDS011;2792;52.452;9.752;2023-04-24T11:39:00;4.80;;;2.40;;
5539;SDS011;2792;52.452;9.752;2023-04-24T11:41:27;2.40;;;2.20;;
5539;SDS011;2792;52.452;9.752;2023-04-24T11:43:56;2.73;;;2.13;;
5539;SDS011;2792;52.452;9.752;2023-04-24T11:46:22;4.10;;;2.00;;
5539;SDS011;2792;52.452;9.752;2023-04-24T11:48:49;2.20;;;2.00;;
5539;SDS011;2792;52.452;9.752;2023-04-24T11:51:15;2.00;;;1.90;;
5539;SDS011;2792;52.452;9.752;2023-04-24T11:53:42;1.70;;;1.60;;
5539;SDS011;2792;52.452;9.752;2023-04-24T11:56:09;2.20;;;1.80;;
5539;SDS011;2792;52.452;9.752;2023-04-24T11:58:35;1.80;;;1.70;;
5539;SDS011;2792;52.452;9.752;2023-04-24T12:01:03;1.73;;;1.63;;
5539;SDS011;2792;52.452;9.752;2023-04-24T12:03:30;1.43;;;1.33;;
5539;SDS011;2792;52.452;9.752;2023-04-24T12:06:04;1.37;;;1.27;;
5539;SDS011;2792;52.452;9.752;2023-04-24T12:08:32;2.03;;;1.30;;
5539;SDS011;2792;52.452;9.752;2023-04-24T12:10:59;1.13;;;1.10;;
5539;SDS011;2792;52.452;9.752;2023-04-24T12:13:26;1.20;;;1.17;;
5539;SDS011;2792;52.452;9.752;2023-04-24T12:15:53;1.50;;;1.40;;
5539;SDS011;2792;52.452;9.752;2023-04-24T12:18:23;2.63;;;1.60;;
5539;SDS011;2792;52.452;9.752;2023-04-24T12:20:49;2.10;;;1.60;;
5539;SDS011;2792;52.452;9.752;2023-04-24T12:23:16;2.23;;;1.40;;
5539;SDS011;2792;52.452;9.752;2023-04-24T12:25:44;1.60;;;1.50;;
5539;SDS011;2792;52.452;9.752;2023-04-24T12:28:11;1.90;;;1.80;;
5539;SDS011;2792;52.452;9.752;2023-04-24T12:30:39;1.97;;;1.87;;
5539;SDS011;2792;52.452;9.752;2023-04-24T12:33:09;1.40;;;1.30;;
5539;SDS011;2792;52.452;9.752;2023-04-24T12:35:37;1.63;;;1.33;;
5539;SDS011;2792;52.452;9.752;2023-04-24T12:38:06;1.53;;;1.43;;
5539;SDS011;2792;52.452;9.752;2023-04-24T12:40:33;1.80;;;1.70;;
5539;SDS011;2792;52.452;9.752;2023-04-24T12:43:00;2.00;;;1.50;;
5539;SDS011;2792;52.452;9.752;2023-04-24T12:45:26;2.40;;;2.07;;
5539;SDS011;2792;52.452;9.752;2023-04-24T12:47:53;1.70;;;1.60;;
5539;SDS011;2792;52.452;9.752;2023-04-24T12:50:20;2.93;;;1.37;;
5539;SDS011;2792;52.452;9.752;2023-04-24T12:52:48;3.03;;;1.80;;
5539;SDS011;2792;52.452;9.752;2023-04-24T12:55:14;2.40;;;1.70;;
5539;SDS011;2792;52.452;9.752;2023-04-24T12:57:41;4.40;;;1.90;;
5539;SDS011;2792;52.452;9.752;2023-04-24T13:00:07;1.50;;;1.40;;
5539;SDS011;2792;52.452;9.752;2023-04-24T13:02:35;1.40;;;1.30;;
5539;SDS011;2792;52.452;9.752;2023-04-24T13:05:01;2.23;;;1.90;;
5539;SDS011;2792;52.452;9.752;2023-04-24T13:07:28;1.37;;;1.37;;
5539;SDS011;2792;52.452;9.752;2023-04-24T13:09:56;1.80;;;1.70;;
5539;SDS011;2792;52.452;9.752;2023-04-24T13:12:23;3.00;;;1.80;;
5539;SDS011;2792;52.452;9.752;2023-04-24T13:14:50;1.80;;;1.60;;
5539;SDS011;2792;52.452;9.752;2023-04-24T13:17:17;3.93;;;1.60;;
5539;SDS011;2792;52.452;9.752;2023-04-24T13:19:43;1.80;;;1.70;;
5539;SDS011;2792;52.452;9.752;2023-04-24T13:22:11;1.80;;;1.70;;
5539;SDS011;2792;52.452;9.752;2023-04-24T13:24:38;2.57;;;2.27;;
5539;SDS011;2792;52.452;9.752;2023-04-24T13:27:07;2.27;;;2.17;;
5539;SDS011;2792;52.452;9.752;2023-04-24T13:29:34;2.63;;;2.40;;
5539;SDS011;2792;52.452;9.752;2023-04-24T13:32:01;2.80;;;2.60;;
5539;SDS011;2792;52.452;9.752;2023-04-24T13:34:27;2.60;;;2.40;;
5539;SDS011;2792;52.452;9.752;2023-04-24T13:36:54;2.80;;;2.60;;
5539;SDS011;2792;52.452;9.752;2023-04-24T13:39:22;2.90;;;2.70;;
5539;SDS011;2792;52.452;9.752;2023-04-24T13:41:48;2.47;;;2.27;;
5539;SDS011;2792;52.452;9.752;2023-04-24T13:44:16;2.67;;;2.47;;
5539;SDS011;2792;52.452;9.752;2023-04-24T13:46:44;1.23;;;1.23;;
5539;SDS011;2792;52.452;9.752;2023-04-24T13:49:11;1.47;;;1.37;;
5539;SDS011;2792;52.452;9.752;2023-04-24T13:51:38;1.40;;;1.30;;
5539;SDS011;2792;52.452;9.752;2023-04-24T13:54:05;1.73;;;1.60;;
5539;SDS011;2792;52.452;9.752;2023-04-24T13:56:31;1.50;;;1.40;;
5539;SDS011;2792;52.452;9.752;2023-04-24T13:58:58;1.40;;;1.30;;
5539;SDS011;2792;52.452;9.752;2023-04-24T14:01:26;1.80;;;1.20;;
5539;SDS011;2792;52.452;9.752;2023-04-24T14:03:53;1.30;;;1.20;;
5539;SDS011;2792;52.452;9.752;2023-04-24T14:06:21;1.60;;;1.07;;
5539;SDS011;2792;52.452;9.752;2023-04-24T14:08:48;1.70;;;1.40;;
5539;SDS011;2792;52.452;9.752;2023-04-24T14:11:15;1.70;;;1.30;;
5539;SDS011;2792;52.452;9.752;2023-04-24T14:13:42;1.40;;;1.30;;
5539;SDS011;2792;52.452;9.752;2023-04-24T14:16:08;1.97;;;1.27;;
5539;SDS011;2792;52.452;9.752;2023-04-24T14:18:37;2.23;;;1.50;;
5539;SDS011;2792;52.452;9.752;2023-04-24T14:21:04;1.63;;;1.50;;
5539;SDS011;2792;52.452;9.752;2023-04-24T14:23:30;1.80;;;1.70;;
5539;SDS011;2792;52.452;9.752;2023-04-24T14:25:57;2.10;;;1.90;;
5539;SDS011;2792;52.452;9.752;2023-04-24T14:28:24;4.80;;;3.20;;
5539;SDS011;2792;52.452;9.752;2023-04-24T14:30:51;2.40;;;2.20;;
5539;SDS011;2792;52.452;9.752;2023-04-24T14:33:18;4.00;;;2.23;;
5539;SDS011;2792;52.452;9.752;2023-04-24T14:35:46;2.63;;;2.20;;
5539;SDS011;2792;52.452;9.752;2023-04-24T14:38:13;2.47;;;2.27;;
5539;SDS011;2792;52.452;9.752;2023-04-24T14:40:40;3.03;;;2.70;;
5539;SDS011;2792;52.452;9.752;2023-04-24T14:43:06;2.77;;;2.50;;
5539;SDS011;2792;52.452;9.752;2023-04-24T14:45:33;4.60;;;2.80;;
5539;SDS011;2792;52.452;9.752;2023-04-24T14:47:59;3.63;;;2.77;;
5539;SDS011;2792;52.452;9.752;2023-04-24T14:50:26;5.70;;;3.30;;
5539;SDS011;2792;52.452;9.752;2023-04-24T14:52:54;4.50;;;3.53;;
5539;SDS011;2792;52.452;9.752;2023-04-24T14:55:22;4.03;;;3.50;;
5539;SDS011;2792;52.452;9.752;2023-04-24T14:57:49;6.60;;;3.40;;
5539;SDS011;2792;52.452;9.752;2023-04-24T15:00:15;4.20;;;3.80;;
5539;SDS011;2792;52.452;9.752;2023-04-24T15:02:43;4.53;;;3.70;;
5539;SDS011;2792;52.452;9.752;2023-04-24T15:05:09;5.13;;;3.90;;
5539;SDS011;2792;52.452;9.752;2023-04-24T15:07:36;6.00;;;3.67;;
5539;SDS011;2792;52.452;9.752;2023-04-24T15:10:05;9.73;;;3.87;;
5539;SDS011;2792;52.452;9.752;2023-04-24T15:12:32;4.73;;;3.30;;
5539;SDS011;2792;52.452;9.752;2023-04-24T15:14:59;6.53;;;3.80;;
5539;SDS011;2792;52.452;9.752;2023-04-24T15:17:25;9.77;;;4.30;;
5539;SDS011;2792;52.452;9.752;2023-04-24T15:19:52;5.50;;;4.20;;
5539;SDS011;2792;52.452;9.752;2023-04-24T15:22:19;6.50;;;3.90;;
5539;SDS011;2792;52.452;9.752;2023-04-24T15:24:46;13.13;;;3.67;;
5539;SDS011;2792;52.452;9.752;2023-04-24T15:27:13;5.67;;;3.60;;